Time;durP1;ratioP1;P1;durP2;ratioP2;P2;SDS_P1;SDS_P2;PMS_P1;PMS_P2;Temp;Humidity;BMP_temperature;BMP_pressure;BME280_temperature;BME280_humidity;BME280_pressure;Samples;Min_cycle;Max_cycle;Signal;HPM_P1;HPM_P2
2023/09/08 00:01:31;;;;;;;4.45;3.45;;;;;;;;;;5038576;28;20206;-95
2023/09/08 00:03:59;;;;;;;3.90;3.53;;;;;;;;;;5040100;28;20203;-95
2023/09/08 00:06:26;;;;;;;3.78;3.47;;;;;;;;;;5044021;28;20260;-93
2023/09/08 00:08:53;;;;;;;4.22;3.65;;;;;;;;;;5038578;28;20208;-94
2023/09/08 00:11:21;;;;;;;4.05;3.30;;;;;;;;;;5038260;28;20251;-94
2023/09/08 00:13:50;;;;;;;4.20;3.80;;;;;;;;;;5041371;28;20203;-93
2023/09/08 00:16:18;;;;;;;3.78;3.47;;;;;;;;;;5042111;28;20199;-94
2023/09/08 00:18:45;;;;;;;4.85;3.70;;;;;;;;;;5041046;28;20215;-94
2023/09/08 00:21:12;;;;;;;4.05;3.65;;;;;;;;;;5038458;28;20223;-94
2023/09/08 00:23:39;;;;;;;4.88;3.83;;;;;;;;;;5036288;28;20200;-88
2023/09/08 00:26:07;;;;;;;3.90;3.58;;;;;;;;;;5035165;28;20207;-88
2023/09/08 00:28:34;;;;;;;4.15;3.75;;;;;;;;;;5036752;28;20211;-88
2023/09/08 00:31:04;;;;;;;4.32;3.92;;;;;;;;;;5041635;28;20300;-89
2023/09/08 00:33:32;;;;;;;7.28;3.85;;;;;;;;;;5040344;28;20222;-88
2023/09/08 00:35:59;;;;;;;4.32;3.92;;;;;;;;;;5039291;28;20234;-89
2023/09/08 00:38:26;;;;;;;4.20;3.78;;;;;;;;;;5025270;28;20310;-89
2023/09/08 00:40:53;;;;;;;3.70;3.38;;;;;;;;;;5023630;28;20250;-88
2023/09/08 00:43:21;;;;;;;3.97;3.47;;;;;;;;;;5018325;28;20653;-89
2023/09/08 00:45:48;;;;;;;4.32;3.92;;;;;;;;;;5022061;28;20216;-88
2023/09/08 00:48:17;;;;;;;4.25;3.85;;;;;;;;;;5019030;28;20236;-88
2023/09/08 00:50:44;;;;;;;3.75;3.45;;;;;;;;;;5022224;28;20247;-88
2023/09/08 00:53:12;;;;;;;4.32;3.92;;;;;;;;;;5021049;28;20216;-88
2023/09/08 00:55:40;;;;;;;4.22;3.80;;;;;;;;;;5018771;28;20239;-89
2023/09/08 00:58:08;;;;;;;4.47;3.88;;;;;;;;;;5017802;28;20255;-88
2023/09/08 01:00:35;;;;;;;3.97;3.67;;;;;;;;;;5023323;28;20208;-88
2023/09/08 01:03:03;;;;;;;5.05;3.63;;;;;;;;;;5019686;28;20270;-88
2023/09/08 01:05:32;;;;;;;5.47;4.03;;;;;;;;;;5019202;28;20284;-88
2023/09/08 01:08:01;;;;;;;4.78;4.15;;;;;;;;;;5028346;28;20212;-88
2023/09/08 01:10:28;;;;;;;4.93;4.10;;;;;;;;;;5018543;28;20216;-89
2023/09/08 01:12:55;;;;;;;4.50;3.90;;;;;;;;;;5019930;28;20227;-88
2023/09/08 01:15:23;;;;;;;4.53;4.18;;;;;;;;;;5020456;28;20208;-90
2023/09/08 01:17:51;;;;;;;4.60;3.95;;;;;;;;;;5022551;28;20228;-88
2023/09/08 01:20:21;;;;;;;3.90;3.60;;;;;;;;;;5020746;28;20215;-88
2023/09/08 01:23:06;;;;;;;4.30;3.90;;;;;;;;;;5016526;28;20280;-88
2023/09/08 01:25:37;;;;;;;4.10;3.80;;;;;;;;;;5015471;28;20244;-89
2023/09/08 01:28:05;;;;;;;4.90;3.70;;;;;;;;;;5023138;28;20245;-89
2023/09/08 01:30:33;;;;;;;7.30;3.80;;;;;;;;;;5022306;28;20269;-89
2023/09/08 01:33:00;;;;;;;4.63;4.03;;;;;;;;;;5017079;28;20255;-88
2023/09/08 01:35:28;;;;;;;4.78;4.05;;;;;;;;;;5022247;28;20287;-89
2023/09/08 01:37:56;;;;;;;4.00;3.70;;;;;;;;;;5018755;28;20242;-89
2023/09/08 01:40:24;;;;;;;4.07;3.65;;;;;;;;;;5022760;28;20230;-89
2023/09/08 01:42:53;;;;;;;4.88;3.97;;;;;;;;;;5025358;28;20211;-89
2023/09/08 01:45:20;;;;;;;4.88;4.20;;;;;;;;;;5025546;28;20210;-90
2023/09/08 01:47:47;;;;;;;5.50;4.10;;;;;;;;;;5022472;28;20204;-90
2023/09/08 01:50:21;;;;;;;5.38;4.15;;;;;;;;;;5023694;28;20237;-89
2023/09/08 01:52:48;;;;;;;5.15;3.63;;;;;;;;;;5022763;28;20248;-88
2023/09/08 01:55:16;;;;;;;4.20;3.90;;;;;;;;;;5026321;28;20228;-88
2023/09/08 01:57:43;;;;;;;4.30;3.90;;;;;;;;;;5027333;28;20220;-89
2023/09/08 02:00:13;;;;;;;4.28;3.80;;;;;;;;;;5026650;28;20228;-89
2023/09/08 02:02:41;;;;;;;4.15;3.75;;;;;;;;;;5025920;28;20207;-89
2023/09/08 02:05:09;;;;;;;4.20;3.80;;;;;;;;;;5028491;28;20208;-88
2023/09/08 02:07:36;;;;;;;4.53;4.10;;;;;;;;;;5027365;28;20204;-89
2023/09/08 02:10:03;;;;;;;4.20;3.80;;;;;;;;;;5024435;28;20272;-89
2023/09/08 02:12:31;;;;;;;4.82;4.43;;;;;;;;;;5033262;28;20315;-89
2023/09/08 02:14:59;;;;;;;6.38;4.10;;;;;;;;;;5027752;28;20212;-88
2023/09/08 02:17:28;;;;;;;4.05;3.75;;;;;;;;;;5030168;28;20239;-88
2023/09/08 02:19:56;;;;;;;4.47;3.75;;;;;;;;;;5030969;28;20200;-89
2023/09/08 02:22:23;;;;;;;4.15;3.85;;;;;;;;;;5033431;28;20218;-89
2023/09/08 02:24:51;;;;;;;4.07;3.78;;;;;;;;;;5031337;28;20306;-88
2023/09/08 02:27:20;;;;;;;5.18;3.90;;;;;;;;;;5028415;28;20231;-89
2023/09/08 02:29:47;;;;;;;4.50;3.90;;;;;;;;;;5028668;28;20250;-89
2023/09/08 02:32:15;;;;;;;4.25;3.78;;;;;;;;;;5021413;28;20225;-89
2023/09/08 02:34:44;;;;;;;4.55;3.63;;;;;;;;;;5027701;28;20216;-89
2023/09/08 02:37:11;;;;;;;4.43;4.10;;;;;;;;;;5024455;28;20204;-88
2023/09/08 02:39:38;;;;;;;4.70;4.30;;;;;;;;;;5021400;28;20204;-88
2023/09/08 02:42:06;;;;;;;4.13;3.72;;;;;;;;;;5034301;28;20200;-89
2023/09/08 02:44:33;;;;;;;4.40;4.07;;;;;;;;;;5022066;28;20201;-89
2023/09/08 02:47:00;;;;;;;6.35;4.18;;;;;;;;;;5030523;28;20203;-89
2023/09/08 02:49:28;;;;;;;4.15;3.75;;;;;;;;;;5026072;28;20200;-89
2023/09/08 02:51:57;;;;;;;4.28;3.88;;;;;;;;;;5027726;28;20315;-88
2023/09/08 02:54:24;;;;;;;4.28;3.85;;;;;;;;;;5028457;28;20266;-89
2023/09/08 02:56:51;;;;;;;4.30;4.00;;;;;;;;;;5022832;28;20205;-88
2023/09/08 02:59:19;;;;;;;4.43;4.00;;;;;;;;;;5028924;28;20212;-89
2023/09/08 03:01:46;;;;;;;6.10;4.30;;;;;;;;;;5023258;28;20212;-89
2023/09/08 03:04:13;;;;;;;4.65;4.10;;;;;;;;;;5026745;28;20222;-88
2023/09/08 03:06:41;;;;;;;4.20;3.80;;;;;;;;;;5022239;28;20208;-88
2023/09/08 03:09:10;;;;;;;4.00;3.67;;;;;;;;;;5022571;28;20210;-89
2023/09/08 03:11:37;;;;;;;5.32;3.72;;;;;;;;;;5020534;28;20248;-89
2023/09/08 03:14:04;;;;;;;4.20;3.90;;;;;;;;;;5022671;28;20196;-88
2023/09/08 03:16:32;;;;;;;4.57;4.00;;;;;;;;;;5021684;28;20208;-89
2023/09/08 03:18:59;;;;;;;4.50;4.10;;;;;;;;;;5017128;28;20291;-89
2023/09/08 03:21:26;;;;;;;3.90;3.60;;;;;;;;;;5029561;28;20269;-89
2023/09/08 03:23:54;;;;;;;4.35;3.83;;;;;;;;;;5021482;28;20214;-88
2023/09/08 03:26:22;;;;;;;4.78;3.92;;;;;;;;;;5022214;28;20303;-89
2023/09/08 03:28:52;;;;;;;4.50;4.10;;;;;;;;;;5022502;28;20200;-88
2023/09/08 03:31:19;;;;;;;4.10;3.80;;;;;;;;;;5021355;28;20209;-88
2023/09/08 03:33:48;;;;;;;4.30;3.90;;;;;;;;;;5020540;28;20235;-89
2023/09/08 03:36:16;;;;;;;4.50;4.10;;;;;;;;;;5024671;28;20299;-89
2023/09/08 03:38:43;;;;;;;8.40;3.88;;;;;;;;;;5023686;28;20400;-88
2023/09/08 03:41:10;;;;;;;4.43;4.03;;;;;;;;;;5027099;28;20217;-89
2023/09/08 03:43:43;;;;;;;4.40;3.97;;;;;;;;;;5023149;28;20227;-89
2023/09/08 03:46:10;;;;;;;4.30;4.00;;;;;;;;;;5022221;28;20212;-89
2023/09/08 03:48:37;;;;;;;4.68;4.28;;;;;;;;;;5024334;28;20220;-88
2023/09/08 03:51:05;;;;;;;4.32;4.03;;;;;;;;;;5025053;28;20228;-88
2023/09/08 03:53:33;;;;;;;4.28;3.88;;;;;;;;;;5029919;28;20232;-94
2023/09/08 03:56:00;;;;;;;4.13;3.83;;;;;;;;;;5028568;28;20605;-93
2023/09/08 03:58:28;;;;;;;4.18;3.88;;;;;;;;;;5023769;28;20211;-94
2023/09/08 04:00:57;;;;;;;4.63;4.20;;;;;;;;;;5022727;28;20212;-93
2023/09/08 04:03:24;;;;;;;4.57;4.18;;;;;;;;;;5023717;28;20275;-94
2023/09/08 04:05:51;;;;;;;5.13;3.80;;;;;;;;;;5028408;28;20204;-94
2023/09/08 04:08:19;;;;;;;4.75;4.35;;;;;;;;;;5024431;28;20212;-96
2023/09/08 04:10:47;;;;;;;5.07;4.20;;;;;;;;;;5033691;28;20252;-93
2023/09/08 04:13:23;;;;;;;5.75;4.13;;;;;;;;;;5023931;28;20294;-93
2023/09/08 04:15:52;;;;;;;4.53;4.20;;;;;;;;;;5028079;28;20230;-94
2023/09/08 04:18:21;;;;;;;4.97;4.55;;;;;;;;;;5025389;28;20212;-94
2023/09/08 04:20:50;;;;;;;4.47;4.07;;;;;;;;;;5020410;28;20260;-92
2023/09/08 04:23:19;;;;;;;4.50;3.90;;;;;;;;;;5032317;28;20200;-93
2023/09/08 04:25:48;;;;;;;4.47;4.15;;;;;;;;;;5030756;28;20224;-94
2023/09/08 04:28:16;;;;;;;4.78;4.38;;;;;;;;;;5032322;28;20207;-94
2023/09/08 04:30:45;;;;;;;4.63;4.18;;;;;;;;;;5030405;28;20212;-93
2023/09/08 04:33:13;;;;;;;4.35;4.00;;;;;;;;;;5026416;28;20221;-95
2023/09/08 04:35:43;;;;;;;5.68;4.30;;;;;;;;;;5027417;28;20200;-96
2023/09/08 04:38:16;;;;;;;6.00;4.45;;;;;;;;;;5024326;28;20232;-95
2023/09/08 04:40:48;;;;;;;6.97;4.70;;;;;;;;;;5029702;28;20220;-95
2023/09/08 04:43:25;;;;;;;4.80;4.40;;;;;;;;;;5027075;28;20206;-95
2023/09/08 04:45:55;;;;;;;4.43;4.03;;;;;;;;;;5024452;28;20196;-96
2023/09/08 04:48:32;;;;;;;4.35;4.00;;;;;;;;;;5026888;28;20200;-94
2023/09/08 04:51:17;;;;;;;4.55;4.15;;;;;;;;;;5031948;28;20212;-94
2023/09/08 04:53:46;;;;;;;6.18;4.20;;;;;;;;;;5025839;28;20235;-96
2023/09/08 04:56:16;;;;;;;4.85;4.35;;;;;;;;;;5030758;28;20204;-95
2023/09/08 04:58:46;;;;;;;6.65;4.32;;;;;;;;;;5027840;28;20283;-95
2023/09/08 05:01:18;;;;;;;4.80;4.40;;;;;;;;;;5036592;28;20205;-96
2023/09/08 05:04:06;;;;;;;4.45;4.05;;;;;;;;;;5025341;28;20204;-88
2023/09/08 05:10:09;;;;;;;4.57;4.15;;;;;;;;;;5017174;28;20212;-89
2023/09/08 05:12:38;;;;;;;4.43;3.72;;;;;;;;;;5021364;28;20246;-88
2023/09/08 05:15:10;;;;;;;5.50;4.30;;;;;;;;;;5029576;28;20286;-89
2023/09/08 05:17:39;;;;;;;4.63;4.22;;;;;;;;;;5026606;28;20208;-89
2023/09/08 05:20:19;;;;;;;5.18;4.70;;;;;;;;;;5028696;28;20299;-88
2023/09/08 05:25:35;;;;;;;5.82;5.03;;;;;;;;;;5011395;28;20239;-89
2023/09/08 05:28:03;;;;;;;4.57;4.28;;;;;;;;;;5020505;28;20219;-90
2023/09/08 05:30:31;;;;;;;7.43;4.30;;;;;;;;;;5023864;28;20215;-89
2023/09/08 05:32:59;;;;;;;4.60;4.20;;;;;;;;;;5025996;28;20231;-89
2023/09/08 05:38:44;;;;;;;4.90;4.50;;;;;;;;;;5024675;28;20232;-89
2023/09/08 05:44:40;;;;;;;4.85;4.45;;;;;;;;;;5024224;28;20299;-89
2023/09/08 05:50:26;;;;;;;4.55;4.07;;;;;;;;;;4931340;29;20211;-89
2023/09/08 05:52:54;;;;;;;4.78;4.38;;;;;;;;;;4932367;29;20234;-89
2023/09/08 05:55:31;;;;;;;5.00;4.50;;;;;;;;;;4930408;29;20204;-88
2023/09/08 06:00:58;;;;;;;4.78;4.38;;;;;;;;;;4929219;28;20306;-89
2023/09/08 06:03:29;;;;;;;5.10;4.60;;;;;;;;;;5019947;28;20232;-90
2023/09/08 06:05:58;;;;;;;4.35;3.95;;;;;;;;;;5023611;28;20200;-89
2023/09/08 06:08:27;;;;;;;5.22;4.72;;;;;;;;;;5030628;28;20231;-89
2023/09/08 06:10:55;;;;;;;5.38;4.70;;;;;;;;;;5033913;28;20214;-90
2023/09/08 06:13:23;;;;;;;4.95;4.60;;;;;;;;;;5022808;28;20224;-89
2023/09/08 06:15:52;;;;;;;5.30;4.80;;;;;;;;;;5026015;28;20239;-89
2023/09/08 06:18:23;;;;;;;4.93;4.45;;;;;;;;;;5021962;28;20423;-88
2023/09/08 06:20:51;;;;;;;4.80;4.40;;;;;;;;;;5023710;28;20274;-88
2023/09/08 06:23:23;;;;;;;4.40;4.07;;;;;;;;;;5019436;28;20222;-89
2023/09/08 06:26:03;;;;;;;5.22;4.82;;;;;;;;;;5021661;28;20323;-88
2023/09/08 06:31:14;;;;;;;4.68;4.38;;;;;;;;;;5018388;28;20259;-88
2023/09/08 06:33:43;;;;;;;5.38;4.95;;;;;;;;;;5023030;28;20235;-88
2023/09/08 06:36:14;;;;;;;4.90;4.50;;;;;;;;;;5021551;28;20212;-88
2023/09/08 06:38:46;;;;;;;4.78;4.38;;;;;;;;;;5021135;28;20271;-88
2023/09/08 06:41:19;;;;;;;6.15;4.50;;;;;;;;;;5026360;28;20208;-88
2023/09/08 06:43:51;;;;;;;4.97;4.57;;;;;;;;;;5029853;28;20204;-88
2023/09/08 06:46:27;;;;;;;5.47;4.78;;;;;;;;;;5019613;28;20295;-88
2023/09/08 06:49:04;;;;;;;4.80;4.40;;;;;;;;;;5015398;28;20299;-88
2023/09/08 06:51:38;;;;;;;7.32;5.10;;;;;;;;;;5019994;28;20278;-88
2023/09/08 06:54:10;;;;;;;5.28;4.78;;;;;;;;;;5027183;28;20219;-89
2023/09/08 06:56:41;;;;;;;5.75;5.25;;;;;;;;;;5024636;28;20207;-89
2023/09/08 06:59:34;;;;;;;5.13;4.72;;;;;;;;;;5030033;28;20204;-88
2023/09/08 07:02:05;;;;;;;5.00;4.60;;;;;;;;;;5025774;28;20299;-87
2023/09/08 07:04:39;;;;;;;4.85;4.40;;;;;;;;;;5023647;28;20277;-89
2023/09/08 07:07:08;;;;;;;5.00;4.68;;;;;;;;;;5019082;28;20213;-89
2023/09/08 07:09:44;;;;;;;5.93;5.07;;;;;;;;;;5021745;28;20214;-89
2023/09/08 07:12:11;;;;;;;5.53;4.68;;;;;;;;;;5016327;28;20207;-88
2023/09/08 07:14:39;;;;;;;5.40;4.80;;;;;;;;;;5025427;28;20221;-88
2023/09/08 07:17:11;;;;;;;5.53;4.40;;;;;;;;;;5019624;28;20214;-89
2023/09/08 07:19:41;;;;;;;5.28;4.70;;;;;;;;;;5021397;28;20204;-88
2023/09/08 07:25:19;;;;;;;5.00;4.50;;;;;;;;;;5022091;28;20215;-88
2023/09/08 07:28:25;;;;;;;4.50;4.10;;;;;;;;;;5019652;28;20205;-88
2023/09/08 07:31:03;;;;;;;5.13;4.28;;;;;;;;;;5020044;28;20219;-88
2023/09/08 07:33:50;;;;;;;4.90;4.45;;;;;;;;;;5022993;28;20232;-88
2023/09/08 07:36:25;;;;;;;7.65;4.38;;;;;;;;;;5015271;28;20220;-88
2023/09/08 07:38:53;;;;;;;4.43;4.03;;;;;;;;;;5022930;28;20235;-88
2023/09/08 07:41:46;;;;;;;4.32;4.03;;;;;;;;;;5027094;28;20216;-89
2023/09/08 07:44:49;;;;;;;5.07;4.03;;;;;;;;;;5023242;28;20201;-88
2023/09/08 07:47:20;;;;;;;5.28;4.10;;;;;;;;;;5018574;28;20229;-89
2023/09/08 07:53:09;;;;;;;5.75;4.05;;;;;;;;;;5008483;28;20315;-88
2023/09/08 07:58:38;;;;;;;4.97;4.03;;;;;;;;;;5025852;28;20239;-88
2023/09/08 08:01:11;;;;;;;4.82;4.22;;;;;;;;;;5024557;28;20286;-89
2023/09/08 08:03:45;;;;;;;4.35;4.05;;;;;;;;;;5023124;28;20204;-89
2023/09/08 08:06:22;;;;;;;5.97;4.30;;;;;;;;;;5029024;28;20223;-88
2023/09/08 08:08:52;;;;;;;4.97;4.20;;;;;;;;;;5027713;28;20207;-89
2023/09/08 08:11:27;;;;;;;6.28;3.97;;;;;;;;;;5024866;28;20300;-90
2023/09/08 08:14:03;;;;;;;4.22;3.92;;;;;;;;;;5028770;28;20223;-88
2023/09/08 08:20:17;;;;;;;4.30;3.90;;;;;;;;;;4958659;28;20202;-88
2023/09/08 08:23:03;;;;;;;;;;;;;;;;;;;;;
2023/09/08 08:32:17;;;;;;;5.22;3.60;;;;;;;;;;4821777;29;20300;-88
2023/09/08 08:35:00;;;;;;;4.93;4.43;;;;;;;;;;4828656;29;20270;-96
2023/09/08 08:37:40;;;;;;;4.45;4.07;;;;;;;;;;4955900;28;20321;-96
2023/09/08 08:40:34;;;;;;;5.50;3.80;;;;;;;;;;4985233;28;20306;-95
2023/09/08 08:43:06;;;;;;;4.53;4.13;;;;;;;;;;4991699;28;20207;-95
2023/09/08 08:45:39;;;;;;;4.50;3.88;;;;;;;;;;5019384;28;20236;-94
2023/09/08 08:48:07;;;;;;;4.13;3.70;;;;;;;;;;5023322;28;20219;-95
2023/09/08 08:50:36;;;;;;;4.93;4.20;;;;;;;;;;5022548;28;20259;-93
2023/09/08 08:53:09;;;;;;;4.35;3.95;;;;;;;;;;5029022;28;20212;-94
2023/09/08 08:55:36;;;;;;;6.30;4.10;;;;;;;;;;5026840;28;20212;-94
2023/09/08 08:58:08;;;;;;;5.47;3.88;;;;;;;;;;5029174;28;20223;-94
2023/09/08 09:00:37;;;;;;;5.53;3.92;;;;;;;;;;5027064;28;20303;-94
2023/09/08 09:03:10;;;;;;;4.13;3.83;;;;;;;;;;5026606;28;20204;-94
2023/09/08 09:05:44;;;;;;;4.22;3.92;;;;;;;;;;5026499;28;20310;-94
2023/09/08 09:08:12;;;;;;;4.22;3.92;;;;;;;;;;5024412;28;20210;-93
2023/09/08 09:10:40;;;;;;;4.35;3.58;;;;;;;;;;5026204;28;20286;-95
2023/09/08 09:13:09;;;;;;;5.40;3.78;;;;;;;;;;5027743;28;20283;-94
2023/09/08 09:15:38;;;;;;;4.40;4.00;;;;;;;;;;5025400;28;20303;-95
2023/09/08 09:18:12;;;;;;;4.45;4.00;;;;;;;;;;5028533;28;20207;-95
2023/09/08 09:20:51;;;;;;;6.40;3.80;;;;;;;;;;5026158;28;20196;-94
2023/09/08 09:23:36;;;;;;;5.07;4.00;;;;;;;;;;5026490;28;20206;-94
2023/09/08 09:26:07;;;;;;;5.95;3.95;;;;;;;;;;5026114;28;20211;-95
2023/09/08 09:28:55;;;;;;;4.43;4.03;;;;;;;;;;5022603;28;20279;-95
2023/09/08 09:31:38;;;;;;;4.05;3.75;;;;;;;;;;5028408;28;20320;-96
2023/09/08 09:34:13;;;;;;;3.85;3.45;;;;;;;;;;5016185;28;20247;-96
2023/09/08 09:39:30;;;;;;;3.53;3.22;;;;;;;;;;5023802;28;20200;-95
2023/09/08 09:42:04;;;;;;;4.30;4.00;;;;;;;;;;5021872;28;20228;-88
2023/09/08 09:44:34;;;;;;;4.50;4.10;;;;;;;;;;5022475;28;20205;-89
2023/09/08 09:47:06;;;;;;;5.20;4.13;;;;;;;;;;5028698;28;20204;-89
2023/09/08 09:56:19;;;;;;;4.38;3.85;;;;;;;;;;4993695;28;20207;-88
2023/09/08 10:05:11;;;;;;;4.07;3.78;;;;;;;;;;4962716;28;20333;-89
2023/09/08 10:07:56;;;;;;;4.63;3.85;;;;;;;;;;5018399;28;20216;-89
2023/09/08 10:10:41;;;;;;;4.18;3.78;;;;;;;;;;5021929;28;20208;-87
2023/09/08 10:13:19;;;;;;;3.95;3.65;;;;;;;;;;5023472;28;20208;-89
2023/09/08 10:16:27;;;;;;;3.92;3.63;;;;;;;;;;5020897;28;20302;-90
2023/09/08 10:22:42;;;;;;;3.80;3.50;;;;;;;;;;4799951;29;20204;-88
2023/09/08 10:25:30;;;;;;;4.30;3.88;;;;;;;;;;4839080;29;20226;-89
2023/09/08 10:40:45;;;;;;;5.78;4.07;;;;;;;;;;4836882;29;20306;-89
2023/09/08 11:05:01;;;;;;;4.63;3.90;;;;;;;;;;4923525;29;20200;-93
2023/09/08 11:10:46;;;;;;;4.60;3.90;;;;;;;;;;4998988;28;20292;-94
2023/09/08 11:13:37;;;;;;;4.95;3.88;;;;;;;;;;5020663;28;20196;-94
2023/09/08 11:16:05;;;;;;;5.60;3.90;;;;;;;;;;5024367;28;20217;-94
2023/09/08 11:18:44;;;;;;;4.07;3.78;;;;;;;;;;5025152;28;20287;-93
2023/09/08 11:21:26;;;;;;;4.38;3.80;;;;;;;;;;5026773;28;20219;-93
2023/09/08 11:24:14;;;;;;;4.50;4.10;;;;;;;;;;5019490;28;20239;-93
2023/09/08 11:27:15;;;;;;;4.45;4.05;;;;;;;;;;5029648;28;20204;-95
2023/09/08 11:30:00;;;;;;;4.90;4.18;;;;;;;;;;5023880;28;20213;-93
2023/09/08 11:35:42;;;;;;;6.07;4.00;;;;;;;;;;5015198;28;20232;-95
2023/09/08 11:41:07;;;;;;;4.97;4.25;;;;;;;;;;4947943;28;20237;-95
2023/09/08 11:50:19;;;;;;;8.27;4.18;;;;;;;;;;4875671;29;20229;-92
2023/09/08 11:53:11;;;;;;;4.93;3.85;;;;;;;;;;4925660;29;20211;-95
2023/09/08 11:56:05;;;;;;;6.63;3.67;;;;;;;;;;4927054;29;20510;-92
2023/09/08 11:58:51;;;;;;;4.60;3.90;;;;;;;;;;4843440;29;20297;-94
2023/09/08 12:04:42;;;;;;;4.63;3.80;;;;;;;;;;4929796;28;20216;-88
2023/09/08 12:07:14;;;;;;;5.78;3.88;;;;;;;;;;4982760;28;20343;-88
2023/09/08 12:09:42;;;;;;;5.38;3.20;;;;;;;;;;4986369;28;20430;-88
2023/09/08 12:12:13;;;;;;;4.18;3.67;;;;;;;;;;5014314;28;20204;-88
2023/09/08 12:14:42;;;;;;;4.40;3.20;;;;;;;;;;5020727;28;20290;-89
2023/09/08 12:17:09;;;;;;;4.70;3.70;;;;;;;;;;5019089;28;20216;-88
2023/09/08 12:19:37;;;;;;;8.63;3.83;;;;;;;;;;5024973;28;20212;-87
2023/09/08 12:22:07;;;;;;;7.03;4.05;;;;;;;;;;5017490;28;20219;-88
2023/09/08 12:24:59;;;;;;;4.82;3.55;;;;;;;;;;5022932;28;20200;-89
2023/09/08 12:27:26;;;;;;;8.82;3.97;;;;;;;;;;5024424;28;20274;-88
2023/09/08 12:29:55;;;;;;;5.15;3.88;;;;;;;;;;5026061;28;20298;-88
2023/09/08 12:32:22;;;;;;;5.68;3.70;;;;;;;;;;5023703;28;20298;-88
2023/09/08 12:34:48;;;;;;;4.35;3.67;;;;;;;;;;5027093;28;20234;-88
2023/09/08 12:37:16;;;;;;;4.20;3.80;;;;;;;;;;5022263;28;20207;-88
2023/09/08 12:39:43;;;;;;;6.65;4.15;;;;;;;;;;5024980;28;20239;-88
2023/09/08 12:42:12;;;;;;;8.93;4.13;;;;;;;;;;5028713;28;20231;-89
2023/09/08 12:44:40;;;;;;;6.15;4.05;;;;;;;;;;5024873;28;20473;-88
2023/09/08 12:47:08;;;;;;;7.85;4.07;;;;;;;;;;5020370;28;20588;-89
2023/09/08 12:49:35;;;;;;;7.18;4.00;;;;;;;;;;5030323;28;20296;-88
2023/09/08 12:52:02;;;;;;;6.95;4.50;;;;;;;;;;5029287;28;20211;-88
2023/09/08 12:54:29;;;;;;;7.93;4.40;;;;;;;;;;5027887;28;20474;-88
2023/09/08 12:56:56;;;;;;;5.55;4.30;;;;;;;;;;5024699;28;20208;-88
2023/09/08 12:59:25;;;;;;;4.63;4.13;;;;;;;;;;5024213;28;20281;-89
2023/09/08 13:01:53;;;;;;;6.13;3.78;;;;;;;;;;5032901;28;20218;-88
2023/09/08 13:04:22;;;;;;;4.88;3.85;;;;;;;;;;5027137;28;20205;-88
2023/09/08 13:06:49;;;;;;;4.43;4.03;;;;;;;;;;5030706;28;20262;-89
2023/09/08 13:09:16;;;;;;;5.32;3.60;;;;;;;;;;5029051;28;20227;-89
2023/09/08 13:11:43;;;;;;;4.53;4.10;;;;;;;;;;5026350;28;20322;-88
2023/09/08 13:14:11;;;;;;;4.50;4.10;;;;;;;;;;5017816;28;20227;-89
2023/09/08 13:16:39;;;;;;;6.57;3.95;;;;;;;;;;5025839;28;20212;-88
2023/09/08 13:19:07;;;;;;;5.47;4.25;;;;;;;;;;5033217;28;20298;-88
2023/09/08 13:21:34;;;;;;;6.53;4.20;;;;;;;;;;5026292;28;20323;-88
2023/09/08 13:24:01;;;;;;;5.15;3.88;;;;;;;;;;5023301;28;20196;-90
2023/09/08 13:26:28;;;;;;;5.20;3.83;;;;;;;;;;5019652;28;20228;-88
2023/09/08 13:28:55;;;;;;;5.05;3.80;;;;;;;;;;5017361;28;20209;-88
2023/09/08 13:31:22;;;;;;;7.88;4.45;;;;;;;;;;5021703;28;20196;-88
2023/09/08 13:33:51;;;;;;;5.70;4.38;;;;;;;;;;5015325;28;20231;-88
2023/09/08 13:36:18;;;;;;;6.50;3.97;;;;;;;;;;5027771;28;20228;-88
2023/09/08 13:38:46;;;;;;;7.97;4.38;;;;;;;;;;5021091;28;20205;-90
2023/09/08 13:41:15;;;;;;;3.83;3.50;;;;;;;;;;5027655;28;20205;-89
2023/09/08 13:43:44;;;;;;;6.90;3.63;;;;;;;;;;5017862;28;20208;-88
2023/09/08 13:46:12;;;;;;;6.15;3.90;;;;;;;;;;5028202;28;20240;-88
2023/09/08 13:48:41;;;;;;;6.32;4.00;;;;;;;;;;5034201;28;20201;-89
2023/09/08 13:51:10;;;;;;;6.28;3.58;;;;;;;;;;5027485;28;20205;-88
2023/09/08 13:53:38;;;;;;;4.95;3.80;;;;;;;;;;5021845;28;20201;-88
2023/09/08 13:56:11;;;;;;;6.88;3.75;;;;;;;;;;5020614;28;20229;-87
2023/09/08 13:58:39;;;;;;;4.50;3.38;;;;;;;;;;5020330;28;20286;-88
2023/09/08 14:01:07;;;;;;;4.25;3.85;;;;;;;;;;5026957;28;20205;-87
2023/09/08 14:03:35;;;;;;;8.30;3.50;;;;;;;;;;5031322;28;20212;-87
2023/09/08 14:06:02;;;;;;;6.95;3.65;;;;;;;;;;5029385;28;20203;-88
2023/09/08 14:08:30;;;;;;;5.35;3.90;;;;;;;;;;5028723;28;20219;-87
2023/09/08 14:10:57;;;;;;;4.45;4.05;;;;;;;;;;5020022;28;20304;-87
2023/09/08 14:13:25;;;;;;;5.55;3.20;;;;;;;;;;5030012;28;20286;-88
2023/09/08 14:15:52;;;;;;;5.65;3.60;;;;;;;;;;5035356;28;20240;-87
2023/09/08 14:18:19;;;;;;;6.25;3.70;;;;;;;;;;5030953;28;20273;-88
2023/09/08 14:20:46;;;;;;;6.25;3.35;;;;;;;;;;5024300;28;20232;-87
2023/09/08 14:23:13;;;;;;;8.48;4.03;;;;;;;;;;5026813;28;20355;-93
2023/09/08 14:25:42;;;;;;;4.88;3.58;;;;;;;;;;5028998;28;20287;-93
2023/09/08 14:28:09;;;;;;;6.20;3.72;;;;;;;;;;5016977;28;20300;-94
2023/09/08 14:30:38;;;;;;;4.05;3.30;;;;;;;;;;5029270;28;20236;-93
2023/09/08 14:33:05;;;;;;;3.55;3.20;;;;;;;;;;5026959;28;20212;-95
2023/09/08 14:35:33;;;;;;;4.72;3.30;;;;;;;;;;5026038;28;20229;-94
2023/09/08 14:38:00;;;;;;;5.88;3.40;;;;;;;;;;5021139;28;20285;-95
2023/09/08 14:40:27;;;;;;;4.85;3.40;;;;;;;;;;5023584;28;20209;-95
2023/09/08 14:42:56;;;;;;;6.53;3.17;;;;;;;;;;5027730;28;20267;-95
2023/09/08 14:45:23;;;;;;;6.00;3.10;;;;;;;;;;5024025;28;20208;-94
2023/09/08 14:47:51;;;;;;;5.53;2.85;;;;;;;;;;5031708;28;20224;-93
2023/09/08 14:50:18;;;;;;;7.00;3.55;;;;;;;;;;5027577;28;20207;-95
2023/09/08 14:52:46;;;;;;;7.70;3.30;;;;;;;;;;5028119;28;20209;-94
2023/09/08 14:55:13;;;;;;;8.02;3.45;;;;;;;;;;5036376;28;20331;-95
2023/09/08 14:57:42;;;;;;;6.20;3.42;;;;;;;;;;5030475;28;20212;-95
2023/09/08 15:00:11;;;;;;;5.03;3.40;;;;;;;;;;5024481;28;20215;-93
2023/09/08 15:02:38;;;;;;;6.28;3.20;;;;;;;;;;5020111;28;20966;-93
2023/09/08 15:05:06;;;;;;;4.50;3.28;;;;;;;;;;5021642;28;20262;-93
2023/09/08 15:07:33;;;;;;;4.55;3.20;;;;;;;;;;5024235;28;20220;-93
2023/09/08 15:10:00;;;;;;;7.47;3.47;;;;;;;;;;5022891;28;20282;-93
2023/09/08 15:12:28;;;;;;;4.47;2.92;;;;;;;;;;5018622;28;20208;-94
2023/09/08 15:14:56;;;;;;;7.22;3.40;;;;;;;;;;5026752;28;20243;-92
2023/09/08 15:17:24;;;;;;;5.15;3.30;;;;;;;;;;5020381;28;20410;-93
2023/09/08 15:19:52;;;;;;;6.93;3.50;;;;;;;;;;5026763;28;20292;-95
2023/09/08 15:22:19;;;;;;;4.93;3.15;;;;;;;;;;5024661;28;20205;-94
2023/09/08 15:24:46;;;;;;;5.32;3.40;;;;;;;;;;5022977;28;20284;-94
2023/09/08 15:27:14;;;;;;;3.85;3.25;;;;;;;;;;5024941;28;20265;-93
2023/09/08 15:29:41;;;;;;;4.88;2.92;;;;;;;;;;5027872;28;20211;-94
2023/09/08 15:32:09;;;;;;;4.00;2.90;;;;;;;;;;5023932;28;20215;-87
2023/09/08 15:34:37;;;;;;;5.53;2.90;;;;;;;;;;5023105;28;20203;-88
2023/09/08 15:37:05;;;;;;;5.03;2.78;;;;;;;;;;5021535;28;20252;-88
2023/09/08 15:39:32;;;;;;;3.95;3.03;;;;;;;;;;5017137;28;20206;-88
2023/09/08 15:41:59;;;;;;;5.55;2.70;;;;;;;;;;5018874;28;20250;-89
2023/09/08 15:44:26;;;;;;;7.55;3.17;;;;;;;;;;5025084;28;20211;-87
2023/09/08 15:46:53;;;;;;;4.93;2.95;;;;;;;;;;5020391;28;20243;-88
2023/09/08 15:49:21;;;;;;;5.22;2.70;;;;;;;;;;5016478;28;20280;-88
2023/09/08 15:51:50;;;;;;;3.58;2.80;;;;;;;;;;5020892;28;20302;-88
2023/09/08 15:54:17;;;;;;;3.17;2.55;;;;;;;;;;5018971;28;20378;-88
2023/09/08 15:56:44;;;;;;;5.75;2.70;;;;;;;;;;5020466;28;20227;-88
2023/09/08 15:59:12;;;;;;;4.22;2.67;;;;;;;;;;5020278;28;20232;-89
2023/09/08 16:01:39;;;;;;;5.50;2.72;;;;;;;;;;5024093;28;20236;-88
2023/09/08 16:04:09;;;;;;;4.28;2.75;;;;;;;;;;5020551;28;20268;-88
2023/09/08 16:06:36;;;;;;;5.05;3.15;;;;;;;;;;5016448;28;20208;-89
2023/09/08 16:09:05;;;;;;;4.93;2.65;;;;;;;;;;5020271;28;20248;-88
2023/09/08 16:11:32;;;;;;;3.20;2.70;;;;;;;;;;5026614;28;20235;-88
2023/09/08 16:14:00;;;;;;;4.82;3.17;;;;;;;;;;5021704;28;20279;-88
2023/09/08 16:16:27;;;;;;;4.78;3.00;;;;;;;;;;5026070;28;20287;-87
2023/09/08 16:18:54;;;;;;;5.60;2.97;;;;;;;;;;5023484;28;20204;-87
2023/09/08 16:21:21;;;;;;;7.97;5.05;;;;;;;;;;5020467;28;20453;-87
2023/09/08 16:23:48;;;;;;;5.47;3.33;;;;;;;;;;5018647;28;20264;-88
2023/09/08 16:26:17;;;;;;;6.32;2.92;;;;;;;;;;5020979;28;20207;-87
2023/09/08 16:28:44;;;;;;;4.90;2.85;;;;;;;;;;5017144;28;20208;-88
2023/09/08 16:31:13;;;;;;;3.58;2.70;;;;;;;;;;5012370;28;20219;-88
2023/09/08 16:33:40;;;;;;;6.03;2.72;;;;;;;;;;5019285;28;20306;-87
2023/09/08 16:36:08;;;;;;;3.88;2.60;;;;;;;;;;5017059;28;20247;-88
2023/09/08 16:38:35;;;;;;;3.55;2.75;;;;;;;;;;5026419;28;20239;-87
2023/09/08 16:41:02;;;;;;;4.15;2.47;;;;;;;;;;5019735;28;20286;-88
2023/09/08 16:43:31;;;;;;;4.60;2.47;;;;;;;;;;5020255;28;20319;-88
2023/09/08 16:45:58;;;;;;;4.10;2.83;;;;;;;;;;5022791;28;20287;-88
2023/09/08 16:48:26;;;;;;;4.93;2.70;;;;;;;;;;5020096;28;20214;-88
2023/09/08 16:50:53;;;;;;;4.82;2.60;;;;;;;;;;5018854;28;20298;-88
2023/09/08 16:53:20;;;;;;;5.50;2.65;;;;;;;;;;5017620;28;20205;-87
2023/09/08 16:55:47;;;;;;;5.07;2.90;;;;;;;;;;5018385;28;20229;-87
2023/09/08 16:58:14;;;;;;;2.95;2.65;;;;;;;;;;5019240;28;20205;-87